Observations for BENSON RAF, United Kingdom (EGUB)

EGUB 200550Z AUTO 34002KT 2100 // NCD 04/04 Q1031   
EGUB 200450Z AUTO 34003KT 2900 // NCD 04/04 Q1031   
EGUB 200350Z AUTO 32004KT 3900 // NCD 05/04 Q1031   
EGUB 200250Z AUTO 02002KT 5000 // NCD 06/05 Q1031   
EGUB 200150Z AUTO 32004KT 7000 // NCD 07/05 Q1031   
EGUB 200050Z AUTO 01004KT 9000 // NCD 10/07 Q1031   
EGUB 192350Z AUTO 35003KT 9999 // NCD 10/07 Q1031   
EGUB 192250Z AUTO 36003KT 9999 // NCD 11/07 Q1031   
EGUB 192150Z AUTO 01002KT 9999 // NCD 12/08 Q1031   
EGUB 192050Z AUTO 05008KT 9999 // NCD 15/08 Q1030   
EGUB 191950Z AUTO 03007KT 9999 // NCD 13/07 Q1030   
EGUB 191850Z AUTO 04006KT 9999 // NCD 15/08 Q1029   
EGUB 191750Z AUTO 01006KT 9999 // NCD 20/09 Q1028   
EGUB 191650Z AUTO 03009KT 9999 // NCD 21/08 Q1028   
EGUB 191550Z AUTO 03012KT 9999 // NCD 22/09 Q1028   
EGUB 191450Z AUTO 02008KT 9999 // NCD 22/08 Q1028   
EGUB 191350Z AUTO 08008KT 9999 // NCD 22/08 Q1028   
EGUB 191250Z AUTO 01009KT 9999 // NCD 22/10 Q1028   
EGUB 191150Z AUTO 36009KT 9999 // NCD 20/11 Q1028   
EGUB 191050Z AUTO 02009KT 9999 // NCD 18/10 Q1028   
EGUB 190950Z AUTO 01008KT 9000 // NCD 16/10 Q1028   
EGUB 190850Z AUTO 03009KT 7000 // NCD 13/09 Q1028   
EGUB 190750Z AUTO 02008KT 5000 // NCD 10/08 Q1028   
EGUB 190650Z AUTO 36004KT 4400 // NCD 08/07 Q1028